Forside
METAR-TAF:

METAR-TAF

Lufthavne :

Edinburgh Airport

Edinburgh, Skotland

Breddekreds: 55-57N, længdekreds: 003-21W, højde: 41 m

Aktuelle vejr

Denne rapport blev lavet for 32 minutter siden, kl. 13:50 UTC
Vind 6 kt fra vestnordvest, varierende mellem vest og nord
Temperatur 11°C
Fugtighed 50%
Tryk 1033 hPa
Sigt 10 km eller mere
Overskyet i en højde af 4300 ft

METAR: EGPH 311350Z 30006KT 260V360 9999 OVC043 11/01 Q1033

Tid: 15:22 (14:22 UTC)

Vejrudsigter

Denne rapport blev lavet for 3 timer og 17 minutter siden, kl. 11:05 UTC
Foreløbig gælder fra 31 på 12 UTC til 01 på 12 UTC
Vind 4 kt fra vest
Sigt 10 km eller mere
Nogle få skyer i en højde af 2000 ft
Brudte skyer i en højde af 4200 ft

TAF: EGPH 311105Z 3112/0112 27004KT 9999 FEW020 BKN042

Vejrobservationer og prognoser fra mere end 4000 lufthavne (METAR og TAF).

De gule og røde prikker repræsenterer de meteorologiske stationer.

Flyt musen over at se navnet på stationen.

Så klik over at se vejr observationer og prognoser.

At skifte det kort: Klik på de grønne knapper med et sort kors for at zoome ind; på den grønne knap med en bindestreg for at zoome ud; eller på de grønne pile for tilstødende kort.


METAR-TAF: